Time;durP1;ratioP1;P1;durP2;ratioP2;P2;SDS_P1;SDS_P2;PMS_P1;PMS_P2;Temp;Humidity;BMP_temperature;BMP_pressure;BME280_temperature;BME280_humidity;BME280_pressure;Samples;Min_cycle;Max_cycle;Signal;HPM_P1;HPM_P2
2023/04/09 00:01:20;;;;;;;3.40;3.10;;;;;;;10.12;69.10;101924.69;6347879;23;20017;-85
2023/04/09 00:03:51;;;;;;;3.15;2.95;;;;;;;10.07;69.21;101930.81;6352737;23;20012;-84
2023/04/09 00:06:21;;;;;;;3.55;3.25;;;;;;;10.12;68.64;101922.91;6396008;23;20081;-86
2023/04/09 00:08:52;;;;;;;2.75;2.55;;;;;;;10.10;68.51;101929.91;6409666;23;20005;-86
2023/04/09 00:11:25;;;;;;;2.50;2.10;;;;;;;10.12;68.47;101927.31;6348873;23;20020;-87
2023/04/09 00:13:57;;;;;;;4.72;3.15;;;;;;;10.10;68.74;101923.81;6409496;23;20388;-85
2023/04/09 00:16:27;;;;;;;2.85;2.65;;;;;;;10.08;68.44;101926.44;6372372;23;20025;-88
2023/04/09 00:18:58;;;;;;;8.40;4.57;;;;;;;10.10;68.42;101929.06;6373981;23;20023;-87
2023/04/09 00:21:28;;;;;;;2.60;2.40;;;;;;;10.09;68.81;101920.31;6399253;23;20096;-84
2023/04/09 00:23:59;;;;;;;3.03;2.75;;;;;;;10.10;68.33;101923.81;6408913;23;20008;-85
2023/04/09 00:26:30;;;;;;;9.88;3.53;;;;;;;10.08;68.05;101916.81;6372771;23;20214;-86
2023/04/09 00:29:01;;;;;;;2.15;1.95;;;;;;;10.07;68.35;101914.22;6374304;23;20012;-86
2023/04/09 00:31:32;;;;;;;7.90;2.67;;;;;;;10.06;68.29;101922.97;6373733;23;20027;-85
2023/04/09 00:34:02;;;;;;;3.00;2.80;;;;;;;10.08;67.65;101916.81;6409359;23;20075;-84
2023/04/09 00:36:33;;;;;;;3.00;2.70;;;;;;;10.00;68.36;101915.13;6347935;23;20366;-87
2023/04/09 00:39:03;;;;;;;2.22;1.98;;;;;;;10.02;67.96;101914.25;6373012;23;20016;-83
2023/04/09 00:41:34;;;;;;;4.00;2.00;;;;;;;10.00;68.02;101917.75;6375788;23;20032;-84
2023/04/09 00:44:05;;;;;;;1.65;1.55;;;;;;;9.89;68.35;101915.16;6388887;23;20067;-84
2023/04/09 00:46:35;;;;;;;3.50;2.17;;;;;;;9.92;68.13;101916.03;6374190;23;20099;-85
2023/04/09 00:49:06;;;;;;;5.50;3.78;;;;;;;9.95;67.89;101912.53;6382858;23;20019;-85
2023/04/09 00:51:37;;;;;;;3.70;1.85;;;;;;;9.89;67.45;101913.44;6397696;23;20379;-85
2023/04/09 00:54:08;;;;;;;1.13;1.13;;;;;;;9.90;67.46;101919.53;6406096;23;20004;-85
2023/04/09 00:56:41;;;;;;;7.07;4.07;;;;;;;9.91;67.34;101916.03;6398563;23;20538;-85
2023/04/09 00:59:11;;;;;;;2.67;2.50;;;;;;;9.92;67.38;101915.16;6384712;23;20356;-84
2023/04/09 01:01:42;;;;;;;2.88;2.63;;;;;;;9.83;67.04;101916.09;6360953;23;20016;-87
2023/04/09 01:04:13;;;;;;;1.88;1.75;;;;;;;9.85;67.43;101918.69;6410831;23;20349;-86
2023/04/09 01:06:46;;;;;;;2.83;2.63;;;;;;;9.73;67.37;101923.09;6348277;23;20095;-86
2023/04/09 01:09:23;;;;;;;2.83;2.63;;;;;;;9.73;67.53;101917.88;6409516;23;20019;-86
2023/04/09 01:12:20;;;;;;;2.50;2.30;;;;;;;9.71;67.54;101914.38;6348396;23;20016;-86
2023/04/09 01:14:50;;;;;;;2.08;1.98;;;;;;;9.70;67.67;101910.03;6373056;23;20015;-85
2023/04/09 01:17:30;;;;;;;2.70;2.33;;;;;;;9.68;67.45;101909.16;6435666;23;20004;-85
2023/04/09 01:20:15;;;;;;;6.82;3.10;;;;;;;9.64;68.01;101907.41;6380925;23;20005;-84
2023/04/09 01:23:15;;;;;;;2.55;2.40;;;;;;;9.64;67.68;101903.94;6436768;23;20005;-85
2023/04/09 01:26:24;;;;;;;4.28;2.97;;;;;;;9.64;67.34;101910.03;6399063;23;20027;-85
2023/04/09 01:29:01;;;;;;;2.88;2.67;;;;;;;9.66;67.42;101907.44;6411126;23;20032;-86
2023/04/09 01:31:37;;;;;;;6.45;4.55;;;;;;;9.62;67.48;101906.56;6409143;23;20117;-85
2023/04/09 01:34:10;;;;;;;11.75;3.58;;;;;;;9.58;68.14;101908.34;6434861;23;20035;-85
2023/04/09 01:36:43;;;;;;;1.90;1.80;;;;;;;9.59;67.55;101911.81;6383343;23;20021;-85
2023/04/09 01:39:15;;;;;;;1.58;1.48;;;;;;;9.58;67.86;101915.31;6384215;23;20035;-86
2023/04/09 01:41:47;;;;;;;3.78;3.47;;;;;;;9.44;68.78;101912.72;6432969;23;20028;-86
2023/04/09 01:44:19;;;;;;;3.92;3.55;;;;;;;9.49;67.88;101910.09;6376182;23;20013;-85
2023/04/09 01:46:50;;;;;;;3.28;2.70;;;;;;;9.53;67.86;101906.59;6401288;23;20039;-84
2023/04/09 01:49:21;;;;;;;3.42;2.17;;;;;;;9.53;67.28;101901.38;6375693;23;20453;-87
2023/04/09 01:51:52;;;;;;;2.35;2.17;;;;;;;9.49;67.64;101899.63;6374133;23;20008;-86
2023/04/09 01:54:23;;;;;;;2.72;2.53;;;;;;;9.50;68.05;101896.13;6350205;23;20012;-84
2023/04/09 01:56:56;;;;;;;3.53;3.22;;;;;;;9.47;67.67;101893.50;6350697;23;20013;-86
2023/04/09 01:59:27;;;;;;;;;;;;;;;9.46;67.71;101895.28;6351156;23;20079;-85
2023/04/09 02:02:04;;;;;;;3.42;3.13;;;;;;;9.45;67.66;101894.41;6373068;23;19912;-86
2023/04/09 02:04:42;;;;;;;2.50;2.35;;;;;;;9.43;67.77;101898.78;6372523;23;20001;-87
2023/04/09 02:07:26;;;;;;;5.35;2.40;;;;;;;9.42;67.76;101898.78;6408854;23;20357;-85
2023/04/09 02:10:00;;;;;;;0.98;0.98;;;;;;;9.39;67.83;101894.41;6373074;23;20104;-85
2023/04/09 02:12:32;;;;;;;2.58;2.38;;;;;;;9.39;67.79;101891.78;6383942;23;20004;-85
2023/04/09 02:15:06;;;;;;;4.60;4.18;;;;;;;9.38;67.77;101889.19;6398052;23;20083;-86
2023/04/09 02:17:36;;;;;;;2.88;2.70;;;;;;;9.41;67.79;101887.44;6350899;23;20032;-84
2023/04/09 02:20:07;;;;;;;3.20;3.00;;;;;;;9.39;67.18;101890.94;6376761;23;20024;-86
2023/04/09 02:22:45;;;;;;;4.38;3.55;;;;;;;9.33;67.85;101891.81;6375085;23;20573;-86
2023/04/09 02:25:16;;;;;;;2.28;2.17;;;;;;;9.33;67.25;101883.97;6423491;23;20020;-87
2023/04/09 02:27:46;;;;;;;1.95;1.85;;;;;;;9.33;66.98;101894.44;6399913;23;20055;-86
2023/04/09 02:30:20;;;;;;;4.03;2.75;;;;;;;9.28;67.85;101885.72;6373995;23;20025;-85
2023/04/09 02:32:51;;;;;;;2.30;2.20;;;;;;;9.29;67.20;101880.47;6378549;23;20064;-86
2023/04/09 02:35:22;;;;;;;1.42;1.42;;;;;;;9.21;67.40;101884.00;6349398;23;20051;-85
2023/04/09 02:37:52;;;;;;;3.47;3.28;;;;;;;9.14;67.99;101888.38;6375558;23;20066;-84
2023/04/09 02:40:23;;;;;;;2.38;2.20;;;;;;;9.16;66.88;101880.50;6375295;23;20020;-87
2023/04/09 02:42:54;;;;;;;2.65;2.45;;;;;;;9.16;66.91;101872.66;6351655;23;20012;-87
2023/04/09 02:45:24;;;;;;;1.35;1.35;;;;;;;9.13;67.01;101871.78;6349913;23;20649;-85
2023/04/09 02:47:55;;;;;;;3.95;2.50;;;;;;;9.09;67.70;101864.81;6401187;23;20012;-83
2023/04/09 02:50:26;;;;;;;4.95;2.90;;;;;;;9.08;67.18;101870.94;6349978;23;20576;-86
2023/04/09 02:52:56;;;;;;;1.85;1.42;;;;;;;9.06;66.87;101869.19;6375993;23;20079;-84
2023/04/09 02:55:27;;;;;;;2.20;2.10;;;;;;;9.04;66.66;101866.59;6374741;23;20044;-86
2023/04/09 02:57:58;;;;;;;2.97;2.40;;;;;;;8.98;67.32;101869.22;6411761;23;20009;-85
2023/04/09 03:00:28;;;;;;;2.15;1.98;;;;;;;8.94;67.26;101870.09;6374879;23;20446;-86
2023/04/09 03:02:59;;;;;;;2.50;2.30;;;;;;;8.94;66.79;101872.72;6411547;23;20064;-84
2023/04/09 03:05:29;;;;;;;3.00;2.25;;;;;;;8.93;66.83;101868.34;6405992;23;20030;-84
2023/04/09 03:08:00;;;;;;;1.52;1.52;;;;;;;8.90;66.54;101865.72;6351165;23;20009;-86
2023/04/09 03:10:31;;;;;;;2.10;1.98;;;;;;;8.78;67.41;101872.75;6374127;23;20313;-86
2023/04/09 03:13:02;;;;;;;1.63;1.55;;;;;;;8.78;66.97;101867.50;6374552;23;20073;-85
2023/04/09 03:15:32;;;;;;;2.58;2.38;;;;;;;8.73;67.54;101863.16;6405869;23;20016;-85
2023/04/09 03:18:03;;;;;;;3.28;2.97;;;;;;;8.66;67.71;101860.53;6411525;23;20009;-85
2023/04/09 03:20:39;;;;;;;1.27;1.25;;;;;;;8.64;67.67;101853.53;6349944;23;20048;-85
2023/04/09 03:23:10;;;;;;;2.60;2.40;;;;;;;8.67;67.70;101856.16;6376640;23;20858;-84
2023/04/09 03:25:40;;;;;;;4.82;2.83;;;;;;;8.68;67.45;101862.28;6398433;23;20396;-86
2023/04/09 03:28:11;;;;;;;10.38;2.75;;;;;;;8.71;67.06;101862.28;6349997;23;20100;-85
2023/04/09 03:30:41;;;;;;;2.33;2.15;;;;;;;8.68;67.45;101855.31;6398383;23;20017;-85
2023/04/09 03:33:12;;;;;;;3.13;2.70;;;;;;;8.64;67.27;101854.44;6397962;23;20009;-85
2023/04/09 03:35:43;;;;;;;2.50;2.35;;;;;;;8.62;67.51;101847.47;6404068;23;20460;-85
2023/04/09 03:38:13;;;;;;;1.27;1.25;;;;;;;8.63;66.83;101844.84;6374617;23;20011;-84
2023/04/09 03:40:44;;;;;;;1.70;1.60;;;;;;;8.63;67.49;101844.84;6402952;23;20099;-86
2023/04/09 03:43:15;;;;;;;3.33;3.03;;;;;;;8.60;67.53;101844.84;6373838;23;20000;-85
2023/04/09 03:45:45;;;;;;;4.18;3.17;;;;;;;8.62;67.18;101847.47;6403609;23;20013;-84
2023/04/09 03:48:22;;;;;;;5.75;3.50;;;;;;;8.59;67.34;101847.47;6375703;23;20008;-85
2023/04/09 03:50:53;;;;;;;6.25;3.03;;;;;;;8.54;67.48;101844.84;6372940;23;20013;-85
2023/04/09 03:53:23;;;;;;;2.10;2.00;;;;;;;8.59;67.09;101853.59;6408657;23;20058;-84
2023/04/09 03:55:54;;;;;;;2.55;2.38;;;;;;;8.55;66.98;101845.72;6374633;23;20514;-86
2023/04/09 03:58:24;;;;;;;2.90;2.67;;;;;;;8.55;67.02;101858.81;6434638;23;20008;-86
2023/04/09 04:00:55;;;;;;;3.83;3.47;;;;;;;8.51;67.08;101850.09;6378479;23;20027;-86
2023/04/09 04:03:26;;;;;;;3.33;3.13;;;;;;;8.50;67.34;101843.97;6398783;23;20436;-84
2023/04/09 04:06:03;;;;;;;6.13;5.57;;;;;;;8.48;67.20;101850.94;6349744;23;20027;-85
2023/04/09 04:08:34;;;;;;;1.90;1.80;;;;;;;8.45;67.25;101845.69;6350679;23;20535;-87
2023/04/09 04:11:05;;;;;;;2.75;2.25;;;;;;;8.43;67.10;101836.97;6402737;23;20016;-84
2023/04/09 04:13:35;;;;;;;3.72;2.38;;;;;;;8.41;67.45;101846.56;6349374;23;20008;-87
2023/04/09 04:16:07;;;;;;;4.35;4.05;;;;;;;8.44;67.01;101849.19;6373487;23;20059;-86
2023/04/09 04:18:38;;;;;;;2.83;2.55;;;;;;;8.40;67.75;101844.81;6425170;23;20012;-86
2023/04/09 04:21:15;;;;;;;3.60;2.47;;;;;;;8.39;67.58;101848.28;6401308;23;20016;-86
2023/04/09 04:23:49;;;;;;;1.88;1.77;;;;;;;8.33;67.51;101854.41;6350054;23;20062;-85
2023/04/09 04:26:19;;;;;;;2.72;2.53;;;;;;;8.33;66.97;101850.91;6398584;23;20986;-86
2023/04/09 04:28:50;;;;;;;2.05;1.60;;;;;;;8.32;67.59;101854.41;6350674;23;20005;-85
2023/04/09 04:31:20;;;;;;;3.45;2.05;;;;;;;8.32;67.42;101854.41;6376995;23;20088;-86
2023/04/09 04:33:51;;;;;;;1.45;1.35;;;;;;;8.30;67.25;101850.94;6374006;23;20016;-87
2023/04/09 04:36:22;;;;;;;1.45;1.35;;;;;;;8.29;67.34;101854.41;6348561;23;20067;-86
2023/04/09 04:38:54;;;;;;;3.30;3.00;;;;;;;8.27;67.57;101866.59;6399760;23;20012;-86
2023/04/09 04:41:25;;;;;;;2.13;2.03;;;;;;;8.23;67.58;101860.50;6400879;23;20569;-86
2023/04/09 04:43:58;;;;;;;1.55;1.45;;;;;;;8.19;67.50;101862.25;6384920;23;20474;-85
2023/04/09 04:46:29;;;;;;;;;;;;;;;8.21;67.35;101861.38;6400092;23;20021;-85
2023/04/09 04:48:59;;;;;;;1.55;1.45;;;;;;;8.19;67.28;101867.47;6399845;23;19914;-84
2023/04/09 04:51:31;;;;;;;0.85;0.85;;;;;;;8.13;67.22;101869.19;6385423;23;20460;-85
2023/04/09 04:54:01;;;;;;;2.47;2.28;;;;;;;8.10;67.06;101870.06;6408833;23;20004;-85
2023/04/09 04:56:32;;;;;;;1.88;1.73;;;;;;;8.10;67.54;101871.81;6397398;23;20075;-86
2023/04/09 04:59:02;;;;;;;2.25;2.10;;;;;;;8.07;67.31;101864.81;6349132;23;20099;-84
2023/04/09 05:01:33;;;;;;;1.85;1.75;;;;;;;8.06;67.13;101868.31;6369216;23;20082;-86
2023/04/09 05:04:03;;;;;;;1.55;1.45;;;;;;;8.05;67.11;101866.59;6348084;23;20016;-85
2023/04/09 05:06:34;;;;;;;2.85;2.17;;;;;;;8.02;66.98;101866.56;6346333;23;20091;-86
2023/04/09 05:09:04;;;;;;;1.17;1.17;;;;;;;8.02;67.63;101861.34;6374087;23;20338;-84
2023/04/09 05:11:35;;;;;;;1.67;1.58;;;;;;;8.00;67.21;101861.34;6375203;23;20015;-86
2023/04/09 05:14:05;;;;;;;2.92;2.72;;;;;;;7.99;67.36;101866.56;6383908;23;20467;-85
2023/04/09 05:16:36;;;;;;;3.50;2.20;;;;;;;7.95;66.92;101867.44;6399761;23;20047;-86
2023/04/09 05:19:06;;;;;;;3.97;3.13;;;;;;;7.92;67.32;101855.25;6348418;23;20017;-84
2023/04/09 05:21:37;;;;;;;2.60;2.45;;;;;;;7.88;67.11;101856.97;6369279;23;20017;-83
2023/04/09 05:24:07;;;;;;;1.27;1.27;;;;;;;7.92;66.86;101859.56;6345079;23;20500;-82
2023/04/09 05:26:38;;;;;;;3.33;2.95;;;;;;;7.90;66.99;101854.34;6347039;23;20024;-83
2023/04/09 05:29:08;;;;;;;2.30;2.20;;;;;;;7.91;66.74;101858.72;6349827;23;20103;-82
2023/04/09 05:31:39;;;;;;;2.40;2.20;;;;;;;7.91;66.87;101857.81;6418493;23;20074;-82
2023/04/09 05:34:10;;;;;;;3.50;2.53;;;;;;;7.88;66.84;101862.19;6394681;23;20310;-82
2023/04/09 05:36:41;;;;;;;2.13;2.03;;;;;;;7.83;66.83;101866.53;6392332;23;20040;-82
2023/04/09 05:39:11;;;;;;;1.13;1.13;;;;;;;7.85;67.04;101864.78;6405883;23;20036;-83
2023/04/09 05:41:43;;;;;;;1.80;1.70;;;;;;;7.81;67.16;101860.41;6399086;23;20016;-84
2023/04/09 05:44:14;;;;;;;2.13;2.03;;;;;;;7.83;66.88;101855.22;6374221;23;20096;-84
2023/04/09 05:46:44;;;;;;;3.70;3.40;;;;;;;7.77;66.75;101860.44;6375952;23;20051;-84
2023/04/09 05:49:15;;;;;;;2.10;2.00;;;;;;;7.75;66.97;101856.94;6374320;23;20016;-84
2023/04/09 05:51:45;;;;;;;1.13;1.08;;;;;;;7.69;67.63;101857.78;6349333;23;20017;-83
2023/04/09 05:54:16;;;;;;;3.03;2.58;;;;;;;7.73;67.04;101854.28;6408376;23;20001;-84
2023/04/09 05:56:47;;;;;;;2.28;2.17;;;;;;;7.72;67.33;101857.81;6396022;23;20573;-84
2023/04/09 05:59:17;;;;;;;2.33;2.15;;;;;;;7.73;67.21;101859.50;6409406;23;20508;-85
2023/04/09 06:01:48;;;;;;;2.08;1.98;;;;;;;7.72;67.13;101857.81;6372232;23;20016;-85
2023/04/09 06:04:18;;;;;;;1.70;1.60;;;;;;;7.68;66.53;101864.75;6434138;23;20011;-85
2023/04/09 06:06:50;;;;;;;1.70;1.60;;;;;;;7.65;67.29;101861.22;6346855;23;20016;-85
2023/04/09 06:09:20;;;;;;;0.90;0.90;;;;;;;7.63;67.35;101863.00;6351513;23;20013;-84
2023/04/09 06:11:51;;;;;;;3.13;1.95;;;;;;;7.64;67.03;101859.50;6376768;23;20692;-84
2023/04/09 06:14:21;;;;;;;4.20;3.00;;;;;;;7.65;67.37;101858.63;6375957;23;20078;-85
2023/04/09 06:16:51;;;;;;;1.98;1.88;;;;;;;7.61;67.36;101864.72;6375913;23;20035;-85
2023/04/09 06:19:22;;;;;;;2.03;1.90;;;;;;;7.62;67.51;101867.31;6412596;23;20010;-84
2023/04/09 06:21:52;;;;;;;2.80;2.60;;;;;;;7.59;68.19;101866.44;6352293;23;20092;-84
2023/04/09 06:24:23;;;;;;;1.55;1.45;;;;;;;7.63;67.86;101865.59;6411965;23;20005;-85
2023/04/09 06:26:53;;;;;;;4.00;3.20;;;;;;;7.64;68.24;101864.75;6377653;23;20036;-84
2023/04/09 06:29:24;;;;;;;1.08;1.05;;;;;;;7.65;67.98;101866.47;6349885;23;20016;-85
2023/04/09 06:31:55;;;;;;;2.00;1.88;;;;;;;7.61;69.33;101867.31;6375112;23;20023;-84
2023/04/09 06:34:25;;;;;;;1.45;1.35;;;;;;;7.58;69.95;101870.81;6376665;23;20445;-84
2023/04/09 06:36:55;;;;;;;1.67;1.58;;;;;;;7.63;68.52;101873.44;6352460;23;20019;-84
2023/04/09 06:39:26;;;;;;;1.70;1.60;;;;;;;7.67;68.90;101876.06;6350942;23;20396;-84
2023/04/09 06:41:57;;;;;;;1.40;1.35;;;;;;;7.70;70.49;101877.81;6380219;23;20080;-85
2023/04/09 06:44:27;;;;;;;2.58;2.38;;;;;;;7.93;68.61;101877.00;6395847;23;20008;-85
2023/04/09 06:46:58;;;;;;;3.00;2.80;;;;;;;8.11;69.19;101882.28;6366895;23;20019;-86
2023/04/09 06:49:28;;;;;;;1.60;1.45;;;;;;;8.15;68.75;101884.00;6369097;23;20056;-87
2023/04/09 06:51:58;;;;;;;1.23;1.20;;;;;;;8.22;68.45;101887.53;6391934;23;20016;-88
2023/04/09 06:54:29;;;;;;;11.20;3.28;;;;;;;8.28;69.16;101889.28;6391091;23;20011;-84
2023/04/09 06:56:59;;;;;;;1.90;1.80;;;;;;;8.42;68.83;101886.69;6396976;23;20523;-86
2023/04/09 06:59:30;;;;;;;2.08;1.98;;;;;;;8.46;68.98;101891.91;6372181;23;20011;-84
2023/04/09 07:02:01;;;;;;;1.25;1.25;;;;;;;8.52;69.19;101887.56;6368537;23;20500;-85
2023/04/09 07:04:31;;;;;;;2.60;2.13;;;;;;;8.57;69.17;101896.28;6345154;23;20009;-86
2023/04/09 07:07:02;;;;;;;0.85;0.85;;;;;;;8.66;68.45;101886.72;6369059;23;20044;-85
2023/04/09 07:09:32;;;;;;;0.63;0.63;;;;;;;8.62;68.77;101881.47;6432943;23;20000;-84
2023/04/09 07:12:03;;;;;;;1.23;1.13;;;;;;;8.59;68.93;101884.97;6343654;23;20079;-84
2023/04/09 07:14:33;;;;;;;1.50;1.40;;;;;;;8.62;68.65;101884.09;6432550;23;20004;-84
2023/04/09 07:17:04;;;;;;;0.93;0.93;;;;;;;8.64;68.65;101884.94;6393351;23;20056;-85
2023/04/09 07:19:34;;;;;;;1.17;1.17;;;;;;;8.58;69.43;101884.94;6370861;23;20388;-84
2023/04/09 07:22:05;;;;;;;1.60;1.50;;;;;;;8.70;68.45;101882.34;6370337;23;20091;-86
2023/04/09 07:24:36;;;;;;;1.73;1.63;;;;;;;8.59;69.37;101886.69;6345698;23;20415;-84
2023/04/09 07:27:06;;;;;;;2.25;1.75;;;;;;;8.70;68.74;101887.59;6344982;23;20322;-86
2023/04/09 07:29:36;;;;;;;0.90;0.90;;;;;;;8.64;68.93;101888.44;6346205;23;20150;-84
2023/04/09 07:32:07;;;;;;;1.52;1.42;;;;;;;8.68;68.89;101889.31;6343045;23;20035;-84
2023/04/09 07:34:37;;;;;;;1.45;1.45;;;;;;;8.74;68.45;101888.44;6381063;23;20009;-84
2023/04/09 07:37:08;;;;;;;0.77;0.77;;;;;;;8.82;68.26;101894.56;6393710;23;20361;-84
2023/04/09 07:39:39;;;;;;;1.65;1.55;;;;;;;8.67;68.07;101892.81;6343491;23;20005;-85
2023/04/09 07:42:09;;;;;;;1.00;1.00;;;;;;;8.71;68.43;101893.66;6393438;23;20019;-85
2023/04/09 07:44:40;;;;;;;1.73;1.15;;;;;;;8.81;68.40;101901.50;6368909;23;20013;-84
2023/04/09 07:47:11;;;;;;;1.38;1.02;;;;;;;8.86;68.68;101893.66;6405502;23;20446;-85
2023/04/09 07:49:42;;;;;;;2.10;1.52;;;;;;;8.73;69.15;101908.50;6372571;23;20083;-85
2023/04/09 07:52:12;;;;;;;2.15;2.05;;;;;;;8.84;69.06;101905.00;6406538;23;20001;-87
2023/04/09 07:54:43;;;;;;;1.73;1.42;;;;;;;8.72;69.53;101906.75;6371907;23;20036;-85
2023/04/09 07:57:14;;;;;;;0.45;0.45;;;;;;;8.73;70.30;101903.25;6375535;23;20107;-84
2023/04/09 07:59:45;;;;;;;1.63;1.38;;;;;;;8.75;70.06;101906.75;6398470;23;20422;-87
2023/04/09 08:02:16;;;;;;;1.05;1.05;;;;;;;8.85;70.02;101909.38;6348636;23;20441;-85
2023/04/09 08:04:47;;;;;;;2.63;2.42;;;;;;;8.94;69.31;101906.75;6371647;23;20076;-86
2023/04/09 08:07:17;;;;;;;0.85;0.85;;;;;;;8.99;69.42;101910.22;6398701;23;20433;-84
2023/04/09 08:09:48;;;;;;;2.38;1.45;;;;;;;9.06;68.75;101909.34;6374703;23;20023;-84
2023/04/09 08:12:18;;;;;;;2.42;1.88;;;;;;;9.06;69.33;101916.31;6434634;23;20013;-86
2023/04/09 08:14:49;;;;;;;1.42;1.33;;;;;;;9.02;69.45;101912.84;6396883;23;20008;-85
2023/04/09 08:17:20;;;;;;;1.98;1.88;;;;;;;9.07;69.15;101918.06;6406968;23;20500;-85
2023/04/09 08:19:51;;;;;;;2.83;1.40;;;;;;;9.10;69.45;101911.09;6372690;23;20004;-85
2023/04/09 08:22:22;;;;;;;0.70;0.70;;;;;;;9.24;68.53;101916.31;6433689;23;20012;-85
2023/04/09 08:24:53;;;;;;;1.27;1.17;;;;;;;9.23;69.24;101913.66;6347803;23;20078;-85
2023/04/09 08:27:24;;;;;;;4.22;1.40;;;;;;;9.18;69.65;101911.06;6407958;23;20004;-85
2023/04/09 08:29:54;;;;;;;2.35;1.90;;;;;;;9.20;69.74;101911.06;6373227;23;20424;-86
2023/04/09 08:32:26;;;;;;;1.63;1.52;;;;;;;9.29;69.61;101913.66;6375110;23;20059;-85
2023/04/09 08:34:56;;;;;;;2.20;2.00;;;;;;;9.25;69.73;101910.19;6350388;23;20004;-84
2023/04/09 08:37:27;;;;;;;1.73;1.63;;;;;;;9.30;69.63;101910.16;6352714;23;20111;-84
2023/04/09 08:39:58;;;;;;;3.63;1.05;;;;;;;9.36;69.60;101907.53;6379486;23;20027;-86
2023/04/09 08:42:30;;;;;;;1.42;1.27;;;;;;;9.38;69.69;101913.63;6352945;23;20016;-85
2023/04/09 08:45:04;;;;;;;1.60;1.50;;;;;;;9.50;69.71;101912.75;6378942;23;20024;-86
2023/04/09 08:47:35;;;;;;;0.50;0.50;;;;;;;9.54;69.23;101918.84;6351690;23;20452;-84
2023/04/09 08:50:06;;;;;;;1.40;1.30;;;;;;;9.47;69.16;101911.84;6347326;23;20460;-83
2023/04/09 08:52:37;;;;;;;0.77;0.77;;;;;;;9.52;70.04;101913.56;6407232;23;20070;-84
2023/04/09 08:55:10;;;;;;;1.75;1.65;;;;;;;9.56;69.66;101904.84;6399234;23;20480;-85
2023/04/09 08:57:42;;;;;;;4.70;1.20;;;;;;;9.74;68.93;101910.91;6377470;23;20001;-85
2023/04/09 09:00:13;;;;;;;2.28;1.40;;;;;;;9.72;68.98;101907.41;6396680;23;20012;-86
2023/04/09 09:03:07;;;;;;;0.98;0.98;;;;;;;9.77;68.53;101896.03;6405919;23;20086;-84
2023/04/09 09:05:39;;;;;;;1.83;1.73;;;;;;;9.81;68.99;101898.59;6426978;23;20073;-83
2023/04/09 09:08:22;;;;;;;0.80;0.80;;;;;;;9.93;66.56;101894.16;6432457;23;20063;-84
2023/04/09 09:10:52;;;;;;;1.63;1.05;;;;;;;9.91;66.22;101895.97;6375788;23;20385;-83
2023/04/09 09:13:25;;;;;;;0.77;0.77;;;;;;;9.92;66.97;101888.94;6371701;23;20043;-84
2023/04/09 09:16:13;;;;;;;1.30;1.17;;;;;;;9.98;66.60;101890.66;6370400;23;20025;-85
2023/04/09 09:18:44;;;;;;;2.35;2.10;;;;;;;10.11;66.00;101886.22;6371009;23;20048;-85
2023/04/09 09:21:16;;;;;;;1.00;0.95;;;;;;;10.07;66.74;101883.59;6368996;23;20067;-84
2023/04/09 09:23:49;;;;;;;0.30;0.30;;;;;;;10.21;66.30;101880.91;6347061;23;20015;-85
2023/04/09 09:26:23;;;;;;;4.03;1.33;;;;;;;10.28;65.80;101876.50;6346769;23;20062;-85
2023/04/09 09:28:55;;;;;;;1.40;1.30;;;;;;;10.30;64.62;101885.19;6371644;23;20013;-86
2023/04/09 09:31:25;;;;;;;1.08;1.08;;;;;;;10.30;66.11;101884.34;6396775;23;20039;-85
2023/04/09 09:33:56;;;;;;;1.52;1.08;;;;;;;10.38;65.50;101877.31;6405714;23;20008;-85
2023/04/09 09:36:34;;;;;;;1.00;1.00;;;;;;;10.42;63.90;101875.53;6418713;23;20328;-84
2023/04/09 09:39:08;;;;;;;2.83;2.25;;;;;;;10.50;62.59;101869.31;6406707;23;20501;-86
2023/04/09 09:41:40;;;;;;;0.52;0.52;;;;;;;10.61;62.45;101874.50;6372152;23;20016;-85
2023/04/09 09:44:29;;;;;;;0.68;0.68;;;;;;;10.71;63.07;101876.16;6346122;23;20016;-84
2023/04/09 09:47:02;;;;;;;1.05;0.85;;;;;;;10.75;62.04;101870.88;6396244;23;20040;-84
2023/04/09 09:49:32;;;;;;;0.80;0.80;;;;;;;10.86;62.73;101862.00;6371510;23;20274;-84
2023/04/09 09:52:07;;;;;;;1.70;0.77;;;;;;;10.94;61.73;101867.19;6372670;23;20191;-84
2023/04/09 09:54:42;;;;;;;1.48;1.38;;;;;;;10.96;60.78;101870.66;6431550;23;20008;-85
2023/04/09 09:57:17;;;;;;;2.58;1.17;;;;;;;11.05;59.13;101869.72;6370780;23;20001;-85
2023/04/09 10:00:00;;;;;;;0.77;0.77;;;;;;;11.00;59.39;101859.25;6404614;23;20338;-84
2023/04/09 10:02:39;;;;;;;1.88;1.02;;;;;;;11.02;59.62;101860.09;6370838;23;20009;-85
2023/04/09 10:05:10;;;;;;;0.60;0.60;;;;;;;11.01;58.55;101853.13;6392911;23;20028;-85
2023/04/09 10:07:41;;;;;;;0.80;0.80;;;;;;;11.06;57.68;101846.94;6391503;23;20019;-85
2023/04/09 10:10:12;;;;;;;0.40;0.40;;;;;;;11.14;57.89;101858.22;6367785;23;20016;-85
2023/04/09 10:12:44;;;;;;;1.10;1.10;;;;;;;11.23;55.13;101857.25;6403268;23;20004;-86
2023/04/09 10:15:15;;;;;;;0.60;0.60;;;;;;;11.21;56.77;101851.16;6369585;23;20020;-85
2023/04/09 10:17:45;;;;;;;1.60;1.50;;;;;;;11.23;56.79;101849.38;6420466;23;20014;-84
2023/04/09 10:20:27;;;;;;;1.85;0.85;;;;;;;11.28;57.26;101845.78;6393634;23;20031;-84
2023/04/09 10:23:05;;;;;;;0.32;0.32;;;;;;;11.42;57.44;101848.25;6369424;23;20004;-85
2023/04/09 10:25:35;;;;;;;2.00;1.23;;;;;;;11.43;55.31;101850.00;6392626;23;20462;-84
2023/04/09 10:28:15;;;;;;;0.50;0.50;;;;;;;11.48;55.21;101849.94;6370004;23;20015;-84
2023/04/09 10:30:45;;;;;;;0.82;0.82;;;;;;;11.57;53.58;101844.56;6425116;23;20015;-84
2023/04/09 10:33:25;;;;;;;1.05;1.05;;;;;;;11.63;55.21;101841.00;6367669;23;20095;-85
2023/04/09 10:36:01;;;;;;;0.38;0.38;;;;;;;11.67;54.97;101837.41;6398674;23;20012;-84
2023/04/09 10:38:34;;;;;;;0.60;0.60;;;;;;;11.73;54.50;101837.34;6370238;23;20043;-84
2023/04/09 10:41:21;;;;;;;4.53;1.20;;;;;;;11.78;56.27;101834.63;6343238;23;20024;-84
2023/04/09 10:43:52;;;;;;;1.15;1.10;;;;;;;11.81;55.47;101840.75;6368328;23;20005;-84
2023/04/09 10:46:33;;;;;;;0.85;0.85;;;;;;;11.89;54.03;101832.72;6396796;23;20083;-85
2023/04/09 10:49:08;;;;;;;2.97;2.55;;;;;;;11.96;54.96;101831.72;6369015;23;20036;-84
2023/04/09 10:51:39;;;;;;;0.55;0.55;;;;;;;12.11;53.87;101835.03;6366900;23;20507;-84
2023/04/09 10:54:31;;;;;;;0.77;0.77;;;;;;;12.14;53.83;101827.13;6345016;23;20008;-85
2023/04/09 10:57:21;;;;;;;2.33;2.20;;;;;;;12.20;54.35;101828.78;6369420;23;20233;-84
2023/04/09 10:59:53;;;;;;;0.70;0.70;;;;;;;12.34;53.96;101833.81;6369604;23;20321;-85
2023/04/09 11:02:39;;;;;;;1.37;1.23;;;;;;;12.33;54.91;101822.41;6377559;23;20076;-85
2023/04/09 11:05:29;;;;;;;0.95;0.95;;;;;;;12.36;53.05;101819.75;6345976;23;20023;-84
2023/04/09 11:08:08;;;;;;;0.88;0.88;;;;;;;12.34;51.02;101823.31;6347873;23;20064;-85
2023/04/09 11:10:48;;;;;;;4.32;2.92;;;;;;;12.47;54.80;101819.56;6396349;23;20023;-85
2023/04/09 11:13:20;;;;;;;0.60;0.60;;;;;;;12.46;53.48;101817.81;6369621;23;20013;-85
2023/04/09 11:15:51;;;;;;;0.55;0.55;;;;;;;12.59;53.00;101818.47;6346451;23;20091;-85
2023/04/09 11:18:23;;;;;;;0.47;0.47;;;;;;;12.69;53.81;101816.53;6381493;23;20337;-85
2023/04/09 11:20:58;;;;;;;4.38;0.80;;;;;;;12.73;52.14;101815.59;6374382;23;20541;-85
2023/04/09 11:23:31;;;;;;;1.40;1.17;;;;;;;12.74;51.76;101810.28;6343695;23;20004;-87
2023/04/09 11:26:01;;;;;;;1.30;1.02;;;;;;;12.77;51.66;101811.97;6345645;23;20021;-86
2023/04/09 11:28:33;;;;;;;0.63;0.63;;;;;;;12.80;52.48;101800.53;6370830;23;20452;-84
2023/04/09 11:31:05;;;;;;;1.45;1.35;;;;;;;12.80;52.46;101796.13;6367837;23;20040;-85
2023/04/09 11:33:35;;;;;;;1.30;0.82;;;;;;;12.79;50.54;101798.81;6394481;23;20015;-85
2023/04/09 11:36:06;;;;;;;0.70;0.52;;;;;;;12.89;51.52;101795.09;6347859;23;20364;-86
2023/04/09 11:38:37;;;;;;;0.30;0.30;;;;;;;12.91;51.19;101788.00;6383601;23;20012;-85
2023/04/09 11:41:11;;;;;;;0.77;0.77;;;;;;;12.98;52.50;101788.78;6373793;23;20179;-84
2023/04/09 11:43:42;;;;;;;0.60;0.60;;;;;;;13.05;50.61;101785.09;6408191;23;20522;-83
2023/04/09 11:46:13;;;;;;;0.38;0.38;;;;;;;13.07;51.38;101781.53;6373133;23;20020;-84
2023/04/09 11:48:43;;;;;;;2.90;2.70;;;;;;;13.18;50.43;101785.72;6374865;23;20008;-85
2023/04/09 11:51:14;;;;;;;1.10;1.00;;;;;;;13.25;50.51;101778.56;6348825;23;20024;-83
2023/04/09 11:53:48;;;;;;;0.65;0.65;;;;;;;13.17;48.35;101779.59;6397716;23;20032;-84
2023/04/09 11:56:19;;;;;;;0.98;0.98;;;;;;;13.34;51.16;101770.47;6347059;23;20116;-84